createdAt,value
2023-05-25T00:01:33.551Z,15.63
2023-05-25T00:04:05.120Z,15.56
2023-05-25T00:06:55.287Z,15.62
2023-05-25T00:09:44.702Z,15.67
2023-05-25T00:12:21.734Z,15.77
2023-05-25T00:14:51.881Z,15.80
2023-05-25T00:20:09.925Z,15.53
2023-05-25T00:22:47.319Z,15.57
2023-05-25T00:25:21.137Z,15.52
2023-05-25T00:30:44.079Z,15.48
2023-05-25T00:33:16.453Z,15.02
2023-05-25T00:35:45.027Z,15.37
2023-05-25T00:38:18.264Z,15.39
2023-05-25T00:40:55.198Z,15.44
2023-05-25T00:43:26.859Z,15.28
2023-05-25T00:45:58.344Z,15.32
2023-05-25T00:48:44.024Z,15.22
2023-05-25T00:51:17.308Z,15.24
2023-05-25T00:53:48.792Z,15.00
2023-05-25T00:56:25.843Z,15.47
2023-05-25T00:58:56.135Z,15.46
2023-05-25T01:01:30.670Z,15.42
2023-05-25T01:04:12.785Z,15.53
2023-05-25T01:06:44.668Z,15.63
2023-05-25T01:09:22.969Z,15.61
2023-05-25T01:12:06.503Z,15.54
2023-05-25T01:14:37.355Z,15.46
2023-05-25T01:17:08.022Z,15.49
2023-05-25T01:19:42.052Z,15.49
2023-05-25T01:22:31.719Z,15.43
2023-05-25T01:25:20.185Z,15.45
2023-05-25T01:28:00.903Z,15.48
2023-05-25T01:30:38.887Z,15.39
2023-05-25T01:33:19.204Z,15.09
2023-05-25T01:35:53.647Z,15.34
2023-05-25T01:38:27.251Z,15.32
2023-05-25T01:40:57.840Z,15.31
2023-05-25T01:43:27.844Z,15.21
2023-05-25T01:46:08.519Z,15.18
2023-05-25T01:48:59.004Z,15.16
2023-05-25T01:51:49.436Z,15.18
2023-05-25T01:54:24.220Z,15.22
2023-05-25T01:56:56.600Z,15.22
2023-05-25T01:59:38.024Z,15.25
2023-05-25T02:02:10.365Z,15.21
2023-05-25T02:04:44.939Z,15.23
2023-05-25T02:07:23.866Z,15.24
2023-05-25T02:10:00.083Z,15.29
2023-05-25T02:12:35.072Z,15.28
2023-05-25T02:15:13.926Z,15.26
2023-05-25T02:17:53.318Z,15.44
2023-05-25T02:20:22.564Z,15.49
2023-05-25T02:22:55.821Z,15.37
2023-05-25T02:25:26.943Z,15.35
2023-05-25T02:28:00.197Z,15.33
2023-05-25T02:30:30.208Z,15.38
2023-05-25T02:33:16.293Z,15.36
2023-05-25T02:35:46.945Z,15.31
2023-05-25T02:38:20.543Z,15.29
2023-05-25T02:40:57.964Z,15.17
2023-05-25T02:43:27.796Z,15.15
2023-05-25T02:46:01.004Z,15.10
2023-05-25T02:48:31.610Z,15.08
2023-05-25T02:51:03.209Z,15.10
2023-05-25T02:53:42.105Z,15.10
2023-05-25T02:56:16.672Z,15.12
2023-05-25T03:01:50.094Z,14.97
2023-05-25T03:04:45.395Z,15.06
2023-05-25T03:10:05.351Z,15.09
2023-05-25T03:15:21.255Z,15.03
2023-05-25T03:17:51.637Z,15.00
2023-05-25T03:20:26.741Z,14.93
2023-05-25T03:23:06.403Z,14.89
2023-05-25T03:25:39.251Z,14.52
2023-05-25T03:28:08.694Z,14.95
2023-05-25T03:30:48.332Z,15.04
2023-05-25T03:33:24.707Z,15.10
2023-05-25T03:36:00.180Z,15.11
2023-05-25T03:38:29.166Z,15.09
2023-05-25T03:41:00.556Z,15.09
2023-05-25T03:43:28.960Z,15.11
2023-05-25T03:46:09.751Z,15.16
2023-05-25T03:51:32.572Z,15.10
2023-05-25T03:56:44.269Z,15.19
2023-05-25T03:59:15.056Z,15.30
2023-05-25T04:01:58.369Z,15.28
2023-05-25T04:04:56.899Z,15.29
2023-05-25T04:07:43.983Z,15.20
2023-05-25T04:10:17.850Z,15.21
2023-05-25T04:12:51.279Z,15.23
2023-05-25T04:15:22.855Z,15.22
2023-05-25T04:18:03.723Z,15.23
2023-05-25T04:23:26.262Z,15.27
2023-05-25T04:26:05.322Z,15.37
2023-05-25T04:28:44.153Z,15.39
2023-05-25T04:31:30.072Z,15.47
2023-05-25T04:34:26.491Z,15.54
2023-05-25T04:37:17.078Z,15.61
2023-05-25T04:39:49.722Z,15.65
2023-05-25T04:42:22.314Z,15.72
2023-05-25T04:44:54.275Z,15.81
2023-05-25T04:47:30.319Z,15.93
2023-05-25T04:50:04.028Z,16.02
2023-05-25T04:52:32.769Z,16.06
2023-05-25T04:55:03.237Z,16.12
2023-05-25T04:57:44.388Z,16.08
2023-05-25T05:00:19.755Z,16.17
2023-05-25T05:03:07.276Z,16.20
2023-05-25T05:05:41.129Z,16.25
2023-05-25T05:08:17.049Z,16.25
2023-05-25T05:10:50.120Z,16.32
2023-05-25T05:13:24.160Z,16.34
2023-05-25T05:15:54.620Z,15.89
2023-05-25T05:18:26.023Z,16.31
2023-05-25T05:20:59.018Z,16.39
2023-05-25T05:23:31.015Z,16.47
2023-05-25T05:26:07.632Z,16.53
2023-05-25T05:28:36.642Z,16.51
2023-05-25T05:31:16.893Z,16.54
2023-05-25T05:33:56.919Z,16.53
2023-05-25T05:36:41.862Z,16.49
2023-05-25T05:39:17.934Z,16.60
2023-05-25T05:41:49.289Z,16.54
2023-05-25T05:44:20.053Z,16.60
2023-05-25T05:46:53.631Z,16.61
2023-05-25T05:49:25.203Z,16.65
2023-05-25T05:52:04.788Z,16.67
2023-05-25T05:54:42.035Z,16.71
2023-05-25T05:57:17.745Z,16.81
2023-05-25T05:59:54.937Z,16.84
2023-05-25T06:02:25.918Z,16.85
2023-05-25T06:04:59.894Z,16.85
2023-05-25T06:07:31.360Z,16.90
2023-05-25T06:10:02.479Z,17.01
2023-05-25T06:12:40.104Z,16.99
2023-05-25T06:15:10.638Z,17.01
2023-05-25T06:17:43.468Z,17.11
2023-05-25T06:20:16.415Z,17.15
2023-05-25T06:23:01.353Z,17.27
2023-05-25T06:25:38.781Z,17.38
2023-05-25T06:28:07.854Z,17.41
2023-05-25T06:30:38.218Z,17.39
2023-05-25T06:33:12.254Z,17.43
2023-05-25T06:38:29.011Z,17.41
2023-05-25T06:41:03.402Z,17.53
2023-05-25T06:43:32.294Z,17.54
2023-05-25T06:46:26.825Z,17.57
2023-05-25T06:49:00.152Z,17.76
2023-05-25T06:51:30.847Z,17.88
2023-05-25T06:54:04.656Z,17.97
2023-05-25T06:56:34.859Z,18.01
2023-05-25T06:59:02.942Z,18.33
2023-05-25T07:01:34.029Z,18.46
2023-05-25T07:04:11.258Z,18.41
2023-05-25T07:06:41.922Z,18.34
2023-05-25T07:09:18.691Z,18.39
2023-05-25T07:11:59.177Z,18.25
2023-05-25T07:14:34.054Z,18.45
2023-05-25T07:17:07.004Z,18.45
2023-05-25T07:22:30.559Z,18.33
2023-05-25T08:41:09.047Z,19.45
2023-05-25T08:43:45.411Z,19.31
2023-05-25T08:46:20.457Z,19.47
2023-05-25T08:48:54.217Z,19.55
2023-05-25T08:51:23.803Z,19.68
2023-05-25T08:53:57.611Z,19.59
2023-05-25T08:56:36.992Z,19.81
2023-05-25T08:59:32.024Z,20.05
2023-05-25T09:02:25.580Z,19.82
2023-05-25T09:05:06.550Z,19.82
2023-05-25T09:07:39.586Z,19.72
2023-05-25T09:10:22.878Z,19.71
2023-05-25T09:13:16.630Z,19.75
2023-05-25T09:15:50.472Z,19.75
2023-05-25T09:18:24.282Z,19.68
2023-05-25T09:21:01.419Z,19.74
2023-05-25T09:23:31.918Z,19.94
2023-05-25T09:26:04.837Z,19.93
2023-05-25T09:28:41.202Z,20.09
2023-05-25T09:31:11.149Z,19.80
2023-05-25T09:33:58.060Z,20.09
2023-05-25T09:36:35.140Z,20.21
2023-05-25T09:39:21.218Z,20.30
2023-05-25T09:41:56.155Z,20.23
2023-05-25T09:44:29.551Z,20.08
2023-05-25T09:46:59.910Z,20.20
2023-05-25T09:49:39.126Z,20.49
2023-05-25T09:52:10.175Z,20.58
2023-05-25T09:54:48.933Z,20.42
2023-05-25T09:57:26.804Z,20.71
2023-05-25T09:59:55.093Z,20.95
2023-05-25T10:02:25.961Z,21.00
2023-05-25T10:04:57.655Z,20.81
2023-05-25T10:07:28.269Z,21.15
2023-05-25T10:09:59.310Z,21.42
2023-05-25T10:12:33.652Z,21.80
2023-05-25T10:15:16.646Z,21.54
2023-05-25T10:18:04.067Z,21.23
2023-05-25T10:20:35.320Z,21.63
2023-05-25T10:23:29.065Z,21.41
2023-05-25T10:26:02.049Z,21.86
2023-05-25T10:28:37.942Z,22.05
2023-05-25T10:31:08.525Z,22.10
2023-05-25T10:33:55.397Z,21.86
2023-05-25T10:36:29.045Z,22.24
2023-05-25T10:39:05.098Z,22.32
2023-05-25T10:41:42.985Z,22.27
2023-05-25T10:44:17.032Z,22.64
2023-05-25T10:46:58.562Z,22.61
2023-05-25T10:49:42.256Z,22.72
2023-05-25T10:52:15.840Z,22.76
2023-05-25T10:54:49.574Z,22.35
2023-05-25T10:57:28.425Z,22.35
2023-05-25T11:00:13.077Z,22.07
2023-05-25T11:03:03.099Z,21.92
2023-05-25T11:05:36.786Z,22.58
2023-05-25T11:08:15.976Z,22.52
2023-05-25T11:10:54.948Z,23.42
2023-05-25T11:13:46.489Z,23.22
2023-05-25T11:16:20.214Z,23.30
2023-05-25T11:19:07.803Z,23.65
2023-05-25T11:21:44.233Z,23.08
